Pearl City, Illinois
Current Conditions -  °F | °C
As of 2:55 PM on Tuesday 25 Nov 2014 (Local Time) from KFEP Reporting Station
Clear Clear  
Wind Chill:   Ceiling: Unl
Heat Index: 20°   Visibility: 10mi
Dew Point: 15°   Wind: 12mph
Humidity: 78%   Direction: 220°SW
Pressure: 30.14"   Gusts: NA
Location:  42.27°N, 89.83°W
Report Text: KFEP 252055Z AUTO 22010KT 10SM CLR M06/M10 A3014 RMK AO2 T10651097
Loading
Personal Weather Stations






























Interactive Weather Map New forecast layout! Learn more

10-Day Weather Forecast

Advertisements
Track Severe Weather on mobile